Time;durP1;ratioP1;P1;durP2;ratioP2;P2;SDS_P1;SDS_P2;PMS_P1;PMS_P2;Temp;Humidity;BMP_temperature;BMP_pressure;BME280_temperature;BME280_humidity;BME280_pressure;Samples;Min_cycle;Max_cycle;Signal;HPM_P1;HPM_P2
2023/12/03 00:02:27;;;;;;;22.05;15.20;;;0.10;1.00;;;;;;5149725;27;20230;-77
2023/12/03 00:04:55;;;;;;;24.02;16.30;;;0.20;1.00;;;;;;5147039;27;20283;-76
2023/12/03 00:07:24;;;;;;;19.20;13.93;;;0.20;1.00;;;;;;5144470;27;20664;-76
2023/12/03 00:09:52;;;;;;;26.08;18.55;;;0.20;1.00;;;;;;5152154;27;20257;-77
2023/12/03 00:12:21;;;;;;;24.75;16.85;;;0.20;1.00;;;;;;5146180;27;21132;-76
2023/12/03 00:14:48;;;;;;;19.52;14.45;;;0.20;1.00;;;;;;5148285;27;20250;-77
2023/12/03 00:17:15;;;;;;;23.15;15.95;;;0.20;1.00;;;;;;5149158;27;20241;-76
2023/12/03 00:19:43;;;;;;;21.10;14.50;;;0.10;1.00;;;;;;5150453;27;20292;-77
2023/12/03 00:22:10;;;;;;;22.30;15.60;;;0.10;1.00;;;;;;5149695;27;20721;-77
2023/12/03 00:24:39;;;;;;;22.27;15.32;;;0.20;1.00;;;;;;5150040;27;20254;-77
2023/12/03 00:27:06;;;;;;;19.15;13.70;;;0.10;1.00;;;;;;5152722;27;20230;-76
2023/12/03 00:29:36;;;;;;;20.10;13.20;;;0.00;1.00;;;;;;5147238;27;20256;-76
2023/12/03 00:32:03;;;;;;;22.35;14.45;;;0.10;1.00;;;;;;5145938;27;20230;-77
2023/12/03 00:34:30;;;;;;;19.92;14.13;;;0.10;1.00;;;;;;5149849;27;21016;-77
2023/12/03 00:36:58;;;;;;;24.27;15.90;;;0.00;1.00;;;;;;5149124;27;20234;-76
2023/12/03 00:39:25;;;;;;;22.10;14.80;;;0.00;1.00;;;;;;5153071;27;20312;-77
2023/12/03 00:41:52;;;;;;;17.77;13.73;;;0.00;1.00;;;;;;5152487;27;20287;-77
2023/12/03 00:44:20;;;;;;;22.52;14.40;;;0.00;1.00;;;;;;5150020;27;20238;-76
2023/12/03 00:46:47;;;;;;;20.70;14.70;;;0.00;1.00;;;;;;5147613;27;20265;-76
2023/12/03 00:49:14;;;;;;;19.30;13.95;;;0.00;1.00;;;;;;5150659;27;20316;-76
2023/12/03 00:51:44;;;;;;;18.83;13.70;;;0.00;1.00;;;;;;5151013;27;20231;-76
2023/12/03 00:54:12;;;;;;;18.90;13.43;;;-0.10;1.00;;;;;;5150164;27;20265;-77
2023/12/03 00:56:39;;;;;;;21.40;13.93;;;-0.10;1.00;;;;;;5155725;27;20237;-77
2023/12/03 00:59:06;;;;;;;16.52;12.40;;;-0.10;1.00;;;;;;5156250;27;20234;-77
2023/12/03 01:01:34;;;;;;;17.45;12.60;;;-0.10;1.00;;;;;;5150948;27;20242;-78
2023/12/03 01:04:01;;;;;;;17.25;12.88;;;-0.10;1.00;;;;;;5149827;27;20230;-77
2023/12/03 01:06:28;;;;;;;19.73;13.50;;;-0.10;1.00;;;;;;5153507;27;20241;-78
2023/12/03 01:08:55;;;;;;;20.67;14.43;;;-0.10;1.00;;;;;;5150940;27;20233;-78
2023/12/03 01:11:23;;;;;;;18.77;12.77;;;-0.20;1.00;;;;;;5153116;27;20245;-78
2023/12/03 01:13:51;;;;;;;21.55;15.23;;;-0.20;1.00;;;;;;5150479;27;20262;-76
2023/12/03 01:16:19;;;;;;;19.50;12.95;;;-0.20;1.00;;;;;;5151738;27;20240;-76
2023/12/03 01:18:46;;;;;;;16.08;11.63;;;-0.20;1.00;;;;;;5150649;27;20748;-76
2023/12/03 01:21:16;;;;;;;16.20;11.90;;;-0.20;1.00;;;;;;5153200;27;20801;-77
2023/12/03 01:23:44;;;;;;;16.02;11.20;;;-0.30;1.00;;;;;;5150580;27;20257;-78
2023/12/03 01:26:12;;;;;;;19.63;13.68;;;-0.20;1.00;;;;;;5151587;27;20313;-78
2023/12/03 01:28:43;;;;;;;17.50;12.25;;;-0.20;1.00;;;;;;5151921;27;20329;-77
2023/12/03 01:31:11;;;;;;;16.27;11.45;;;-0.20;1.00;;;;;;5151622;27;20314;-77
2023/12/03 01:33:38;;;;;;;17.17;11.50;;;-0.30;1.00;;;;;;5150314;27;20310;-77
2023/12/03 01:36:06;;;;;;;14.18;10.32;;;-0.30;1.00;;;;;;5153045;27;20229;-77
2023/12/03 01:38:33;;;;;;;16.98;12.15;;;-0.40;1.00;;;;;;5155813;27;20607;-77
2023/12/03 01:41:00;;;;;;;14.50;10.30;;;-0.50;1.00;;;;;;5148416;27;20234;-76
2023/12/03 01:43:28;;;;;;;13.63;9.50;;;-0.50;1.00;;;;;;5150347;27;20322;-77
2023/12/03 01:45:57;;;;;;;17.52;10.73;;;-0.60;1.00;;;;;;5150138;27;21100;-78
2023/12/03 01:48:25;;;;;;;16.20;10.60;;;-0.60;1.00;;;;;;5152644;27;20341;-77
2023/12/03 01:50:53;;;;;;;15.88;10.60;;;-0.70;1.00;;;;;;5151251;27;20361;-77
2023/12/03 01:53:20;;;;;;;12.48;10.00;;;-0.70;1.00;;;;;;5152390;27;20257;-77
2023/12/03 01:55:47;;;;;;;12.15;9.50;;;-0.60;1.00;;;;;;5146354;27;20330;-76
2023/12/03 01:58:14;;;;;;;16.17;10.68;;;-0.60;1.00;;;;;;5151417;27;20264;-76
2023/12/03 02:00:42;;;;;;;15.88;9.90;;;-0.60;1.00;;;;;;5153750;27;20238;-77
2023/12/03 02:03:13;;;;;;;12.77;10.00;;;-0.70;1.00;;;;;;5150430;27;20261;-77
2023/12/03 02:05:42;;;;;;;13.18;9.50;;;-0.70;1.00;;;;;;5150144;27;20314;-77
2023/12/03 02:08:09;;;;;;;13.25;10.07;;;-0.70;1.00;;;;;;5151289;27;20242;-77
2023/12/03 02:10:38;;;;;;;16.02;9.93;;;-0.80;1.00;;;;;;5149251;27;20316;-78
2023/12/03 02:13:06;;;;;;;10.73;9.20;;;-0.70;1.00;;;;;;5148957;27;20253;-77
2023/12/03 02:15:33;;;;;;;13.23;8.45;;;-0.70;1.00;;;;;;5148525;27;21074;-77
2023/12/03 02:18:00;;;;;;;16.23;10.55;;;-0.70;1.00;;;;;;5144164;27;20298;-77
2023/12/03 02:20:28;;;;;;;14.93;9.32;;;-0.70;1.00;;;;;;5152610;27;20667;-77
2023/12/03 02:23:00;;;;;;;12.38;8.68;;;-0.70;1.00;;;;;;5149804;27;20238;-77
2023/12/03 02:25:27;;;;;;;11.30;8.45;;;-0.70;1.00;;;;;;5147381;27;20295;-77
2023/12/03 02:27:56;;;;;;;12.15;8.15;;;-0.70;1.00;;;;;;5145338;27;20258;-77
2023/12/03 02:30:23;;;;;;;13.05;9.15;;;-0.60;1.00;;;;;;5147612;27;20312;-76
2023/12/03 02:32:50;;;;;;;12.30;8.88;;;-0.50;1.00;;;;;;5151435;27;20242;-76
2023/12/03 02:35:17;;;;;;;11.43;8.80;;;-0.40;1.00;;;;;;5149652;27;20321;-76
2023/12/03 02:37:44;;;;;;;10.77;7.85;;;-0.40;1.00;;;;;;5150412;27;20233;-77
2023/12/03 02:40:13;;;;;;;12.65;9.73;;;-0.40;1.00;;;;;;5149523;27;20287;-77
2023/12/03 02:42:41;;;;;;;11.18;8.93;;;-0.40;1.00;;;;;;5147778;27;20234;-76
2023/12/03 02:45:09;;;;;;;9.30;7.40;;;-0.40;1.00;;;;;;5152421;27;20295;-76
2023/12/03 02:47:38;;;;;;;10.93;8.32;;;-0.40;1.00;;;;;;5148300;27;20230;-76
2023/12/03 02:50:06;;;;;;;10.75;7.80;;;-0.40;1.00;;;;;;5148422;27;20736;-76
2023/12/03 02:52:33;;;;;;;11.10;7.20;;;-0.40;1.00;;;;;;5149992;27;20233;-76
2023/12/03 02:55:01;;;;;;;10.70;7.65;;;-0.40;1.00;;;;;;5148588;27;20321;-76
2023/12/03 02:57:29;;;;;;;8.93;7.53;;;-0.30;1.00;;;;;;5151938;27;20233;-77
2023/12/03 02:59:56;;;;;;;9.57;8.02;;;-0.30;1.00;;;;;;5152527;27;20332;-76
2023/12/03 03:02:24;;;;;;;9.52;7.55;;;-0.20;1.00;;;;;;5149097;27;20241;-76
2023/12/03 03:04:51;;;;;;;10.32;6.65;;;-0.10;1.00;;;;;;5150703;27;20714;-76
2023/12/03 03:07:18;;;;;;;10.00;7.50;;;-0.10;1.00;;;;;;5149280;27;20307;-76
2023/12/03 03:09:45;;;;;;;10.00;6.95;;;-0.10;1.00;;;;;;5148293;27;21954;-76
2023/12/03 03:12:12;;;;;;;13.35;7.68;;;0.00;1.00;;;;;;5149355;27;20262;-76
2023/12/03 03:14:41;;;;;;;8.80;7.00;;;0.00;1.00;;;;;;5141714;27;20704;-76
2023/12/03 03:17:11;;;;;;;11.35;7.18;;;0.10;1.00;;;;;;5144911;27;20245;-76
2023/12/03 03:19:38;;;;;;;10.75;7.93;;;0.10;1.00;;;;;;5148850;27;21018;-76
2023/12/03 03:22:05;;;;;;;9.10;7.10;;;0.20;1.00;;;;;;5145917;27;20738;-76
2023/12/03 03:24:32;;;;;;;9.63;7.18;;;0.30;1.00;;;;;;5149209;27;20338;-76
2023/12/03 03:26:59;;;;;;;9.23;7.10;;;0.20;1.00;;;;;;5146725;27;21014;-76
2023/12/03 03:29:26;;;;;;;8.48;6.78;;;0.20;1.00;;;;;;5150898;27;21208;-77
2023/12/03 03:31:57;;;;;;;8.57;6.93;;;0.30;1.00;;;;;;5151661;27;20238;-77
2023/12/03 03:34:24;;;;;;;10.13;6.95;;;0.30;1.00;;;;;;5148105;27;20238;-78
2023/12/03 03:36:51;;;;;;;9.07;7.03;;;0.30;1.00;;;;;;5149245;27;20233;-77
2023/12/03 03:39:18;;;;;;;9.32;7.35;;;0.30;1.00;;;;;;5150617;27;20325;-77
2023/12/03 03:41:46;;;;;;;9.40;7.18;;;0.30;1.00;;;;;;5147785;27;20724;-77
2023/12/03 03:44:16;;;;;;;9.88;6.60;;;0.30;1.00;;;;;;5142805;27;20230;-76
2023/12/03 03:46:43;;;;;;;11.32;7.85;;;0.40;1.00;;;;;;5148408;27;20964;-77
2023/12/03 03:49:12;;;;;;;8.40;7.07;;;0.40;1.00;;;;;;5146035;27;21668;-77
2023/12/03 03:51:39;;;;;;;9.77;7.70;;;0.40;1.00;;;;;;5149643;27;20325;-77
2023/12/03 03:54:06;;;;;;;9.73;7.93;;;0.40;1.00;;;;;;5150089;27;21258;-77
2023/12/03 03:56:33;;;;;;;8.82;7.05;;;0.30;1.00;;;;;;5149885;27;20265;-77
2023/12/03 03:59:00;;;;;;;8.15;6.97;;;0.30;1.00;;;;;;5149126;27;20324;-76
2023/12/03 04:01:27;;;;;;;10.50;8.77;;;0.20;1.00;;;;;;5148155;27;20330;-76
2023/12/03 04:03:54;;;;;;;8.75;7.68;;;0.20;1.00;;;;;;5145333;27;20249;-77
2023/12/03 04:06:23;;;;;;;13.68;8.60;;;0.10;1.00;;;;;;5146957;27;20240;-76
2023/12/03 04:08:50;;;;;;;10.52;8.50;;;0.10;1.00;;;;;;5149324;27;20242;-76
2023/12/03 04:11:17;;;;;;;13.35;10.07;;;0.10;1.00;;;;;;5147709;27;20234;-76
2023/12/03 04:13:44;;;;;;;16.42;9.82;;;0.10;1.00;;;;;;5147802;27;20234;-76
2023/12/03 04:16:24;;;;;;;13.77;10.20;;;0.10;1.00;;;;;;5146364;27;20236;-77
2023/12/03 04:18:51;;;;;;;14.30;11.00;;;0.10;1.00;;;;;;5147971;27;20237;-76
2023/12/03 04:21:18;;;;;;;14.50;10.48;;;0.10;1.00;;;;;;5152733;27;20262;-77
2023/12/03 04:23:46;;;;;;;14.25;10.93;;;0.10;1.00;;;;;;5151466;27;20238;-77
2023/12/03 04:26:14;;;;;;;14.05;11.40;;;0.10;1.00;;;;;;5153662;27;20222;-77
2023/12/03 04:28:42;;;;;;;17.77;11.77;;;0.10;1.00;;;;;;5149835;27;20373;-77
2023/12/03 04:31:19;;;;;;;14.45;11.23;;;0.10;1.00;;;;;;5147512;27;20287;-76
2023/12/03 04:33:47;;;;;;;15.45;11.35;;;0.10;1.00;;;;;;5153222;27;20234;-76
2023/12/03 04:36:16;;;;;;;14.20;10.50;;;0.20;1.00;;;;;;5144483;27;20230;-78
2023/12/03 04:38:43;;;;;;;14.90;10.95;;;0.30;1.00;;;;;;5162184;27;20230;-77
2023/12/03 04:41:11;;;;;;;15.88;11.60;;;0.20;1.00;;;;;;5151808;27;20667;-77
2023/12/03 04:43:39;;;;;;;15.18;11.43;;;0.10;1.00;;;;;;5147891;27;20237;-77
2023/12/03 04:46:07;;;;;;;15.30;12.48;;;0.10;1.00;;;;;;5154540;27;21022;-76
2023/12/03 04:48:34;;;;;;;16.45;11.70;;;0.20;1.00;;;;;;5150620;27;20249;-77
2023/12/03 04:51:02;;;;;;;15.93;12.10;;;0.30;1.00;;;;;;5160689;27;20696;-76
2023/12/03 04:53:30;;;;;;;16.00;12.88;;;0.20;1.00;;;;;;5151088;27;20735;-76
2023/12/03 04:55:59;;;;;;;15.85;12.40;;;0.20;1.00;;;;;;5152835;27;20238;-77
2023/12/03 04:58:27;;;;;;;14.15;11.57;;;0.30;1.00;;;;;;5151709;27;20687;-77
2023/12/03 05:00:57;;;;;;;18.00;13.25;;;0.30;1.00;;;;;;5152465;27;20233;-77
2023/12/03 05:03:24;;;;;;;13.48;10.48;;;0.30;1.00;;;;;;5146721;27;20968;-77
2023/12/03 05:05:54;;;;;;;12.82;10.15;;;0.30;1.00;;;;;;5145967;27;20261;-77
2023/12/03 05:08:21;;;;;;;14.27;11.63;;;0.30;1.00;;;;;;5154259;27;20233;-77
2023/12/03 05:10:48;;;;;;;14.02;10.52;;;0.20;1.00;;;;;;5149773;27;20235;-77
2023/12/03 05:13:16;;;;;;;13.73;11.70;;;0.20;1.00;;;;;;5147817;27;20237;-76
2023/12/03 05:15:45;;;;;;;14.70;12.27;;;0.20;1.00;;;;;;5149290;27;20238;-76
2023/12/03 05:18:12;;;;;;;14.05;12.05;;;0.20;1.00;;;;;;5153201;27;20234;-76
2023/12/03 05:20:38;;;;;;;16.52;14.30;;;0.30;1.00;;;;;;5150531;27;20244;-76
2023/12/03 05:23:05;;;;;;;16.48;12.82;;;0.30;1.00;;;;;;5152088;27;20329;-77
2023/12/03 05:25:33;;;;;;;18.35;13.52;;;0.30;1.00;;;;;;5149462;27;20281;-77
2023/12/03 05:28:01;;;;;;;18.55;14.50;;;0.30;1.00;;;;;;5151686;27;20331;-77
2023/12/03 05:30:28;;;;;;;20.75;13.82;;;0.30;1.00;;;;;;5149109;27;20259;-77
2023/12/03 05:33:00;;;;;;;18.58;14.60;;;0.40;1.00;;;;;;5148908;27;20232;-77
2023/12/03 05:35:30;;;;;;;18.50;13.70;;;0.40;1.00;;;;;;5152129;27;20256;-76
2023/12/03 05:37:58;;;;;;;18.35;13.98;;;0.40;1.00;;;;;;5149957;27;20238;-76
2023/12/03 05:40:25;;;;;;;21.17;14.68;;;0.50;1.00;;;;;;5150643;27;20233;-77
2023/12/03 05:42:52;;;;;;;22.05;14.32;;;0.50;1.00;;;;;;5145494;27;20326;-79
2023/12/03 05:45:19;;;;;;;23.38;13.85;;;0.50;1.00;;;;;;5150913;27;20218;-78
2023/12/03 05:47:47;;;;;;;21.95;15.45;;;0.50;1.00;;;;;;5149759;27;20230;-77
2023/12/03 05:50:15;;;;;;;19.35;14.60;;;0.50;1.00;;;;;;5152175;27;20233;-76
2023/12/03 05:52:42;;;;;;;17.38;13.90;;;0.50;1.00;;;;;;5149993;27;20238;-77
2023/12/03 05:55:13;;;;;;;17.65;13.23;;;0.50;1.00;;;;;;5150838;27;21086;-78
2023/12/03 05:57:40;;;;;;;17.30;12.95;;;0.50;1.00;;;;;;5150276;27;20794;-78
2023/12/03 06:00:08;;;;;;;19.02;13.98;;;0.50;1.00;;;;;;5149830;27;20979;-78
2023/12/03 06:02:36;;;;;;;19.08;13.20;;;0.40;1.00;;;;;;5147547;27;20268;-77
2023/12/03 06:05:03;;;;;;;17.05;14.20;;;0.40;1.00;;;;;;5149381;27;20234;-77
2023/12/03 06:07:31;;;;;;;21.38;14.52;;;0.30;1.00;;;;;;5152657;27;21050;-77
2023/12/03 06:09:58;;;;;;;18.92;14.52;;;0.20;1.00;;;;;;5151577;27;20768;-77
2023/12/03 06:12:25;;;;;;;18.73;13.68;;;0.20;1.00;;;;;;5149982;27;20322;-78
2023/12/03 06:14:52;;;;;;;15.25;12.68;;;0.20;1.00;;;;;;5150791;27;20237;-78
2023/12/03 06:17:21;;;;;;;17.60;14.80;;;0.20;1.00;;;;;;5150250;27;20229;-78
2023/12/03 06:19:50;;;;;;;18.92;14.07;;;0.10;1.00;;;;;;5151399;27;20317;-77
2023/12/03 06:22:17;;;;;;;16.77;13.93;;;0.00;1.00;;;;;;5153447;27;20242;-79
2023/12/03 06:24:48;;;;;;;17.42;12.55;;;-0.10;1.00;;;;;;5148830;27;20298;-78
2023/12/03 06:27:16;;;;;;;21.85;14.75;;;0.00;1.00;;;;;;5150054;27;20327;-78
2023/12/03 06:29:44;;;;;;;18.90;14.80;;;0.00;1.00;;;;;;5145236;27;20728;-78
2023/12/03 06:32:13;;;;;;;17.75;13.43;;;0.10;1.00;;;;;;5152755;27;20245;-78
2023/12/03 06:34:40;;;;;;;19.23;13.52;;;0.10;1.00;;;;;;5151138;27;20332;-78
2023/12/03 06:37:08;;;;;;;16.83;12.75;;;0.10;1.00;;;;;;5153055;27;20235;-78
2023/12/03 06:39:35;;;;;;;20.27;14.20;;;0.10;1.00;;;;;;5149935;27;20281;-78
2023/12/03 06:42:04;;;;;;;19.58;14.68;;;0.10;1.00;;;;;;5146740;27;20310;-78
2023/12/03 06:44:32;;;;;;;19.17;14.02;;;0.10;1.00;;;;;;5147683;27;20788;-79
2023/12/03 06:46:59;;;;;;;19.58;14.25;;;0.10;1.00;;;;;;5150489;27;20325;-78
2023/12/03 06:49:26;;;;;;;20.10;13.80;;;0.20;1.00;;;;;;5148729;27;20302;-78
2023/12/03 06:51:53;;;;;;;21.48;14.98;;;0.30;1.00;;;;;;5146743;27;20234;-78
2023/12/03 06:54:20;;;;;;;21.80;14.50;;;0.20;1.00;;;;;;5151833;27;20238;-79
2023/12/03 06:56:47;;;;;;;16.70;13.43;;;0.20;1.00;;;;;;5148937;27;20291;-78
2023/12/03 06:59:16;;;;;;;20.73;13.63;;;0.10;1.00;;;;;;5147458;27;20324;-78
2023/12/03 07:01:43;;;;;;;15.68;13.95;;;0.10;1.00;;;;;;5148067;27;21077;-78
2023/12/03 07:04:13;;;;;;;17.13;13.30;;;0.10;1.00;;;;;;5149096;27;20257;-78
2023/12/03 07:06:40;;;;;;;16.70;13.43;;;0.00;1.00;;;;;;5148059;27;20237;-78
2023/12/03 07:09:07;;;;;;;16.65;12.13;;;0.00;1.00;;;;;;5148004;27;21454;-78
2023/12/03 07:11:34;;;;;;;17.77;13.70;;;0.00;1.00;;;;;;5148149;27;20234;-78
2023/12/03 07:14:02;;;;;;;19.15;13.70;;;0.00;1.00;;;;;;5142932;27;20214;-79
2023/12/03 07:16:34;;;;;;;22.88;14.93;;;0.10;1.00;;;;;;5152095;27;21116;-79
2023/12/03 07:19:02;;;;;;;18.05;13.93;;;0.10;1.00;;;;;;5149613;27;20260;-78
2023/12/03 07:21:32;;;;;;;17.67;13.45;;;0.00;1.00;;;;;;5150365;27;20245;-79
2023/12/03 07:23:59;;;;;;;18.20;14.43;;;0.10;1.00;;;;;;5147359;27;20237;-78
2023/12/03 07:26:26;;;;;;;17.70;13.45;;;0.10;1.00;;;;;;5150061;27;20324;-79
2023/12/03 07:28:53;;;;;;;18.85;12.50;;;0.10;1.00;;;;;;5146240;27;20289;-78
2023/12/03 07:31:20;;;;;;;18.85;12.40;;;0.10;1.00;;;;;;5147829;27;20234;-78
2023/12/03 07:33:48;;;;;;;16.83;12.68;;;0.20;1.00;;;;;;5146209;27;20329;-78
2023/12/03 07:36:15;;;;;;;18.73;13.90;;;0.20;1.00;;;;;;5145523;27;20324;-78
2023/12/03 07:38:42;;;;;;;17.30;13.60;;;0.20;1.00;;;;;;5149669;27;20907;-78
2023/12/03 07:41:11;;;;;;;16.23;12.85;;;0.30;1.00;;;;;;5148054;27;20325;-78
2023/12/03 07:43:39;;;;;;;19.90;13.00;;;0.30;1.00;;;;;;5147946;27;21455;-78
2023/12/03 07:46:07;;;;;;;19.83;14.10;;;0.30;1.00;;;;;;5149008;27;20246;-78
2023/12/03 07:48:35;;;;;;;20.70;14.27;;;0.30;1.00;;;;;;5144772;27;20226;-78
2023/12/03 07:51:10;;;;;;;18.55;13.55;;;0.20;1.00;;;;;;5146965;27;20269;-78
2023/12/03 07:53:39;;;;;;;18.23;13.93;;;0.20;1.00;;;;;;5153300;27;20261;-78
2023/12/03 07:56:08;;;;;;;19.33;15.35;;;0.20;1.00;;;;;;5148887;27;21154;-79
2023/12/03 07:58:36;;;;;;;17.92;15.07;;;0.20;1.00;;;;;;5150560;27;20230;-78
2023/12/03 08:01:05;;;;;;;17.55;12.77;;;0.20;1.00;;;;;;5152427;27;21064;-78
2023/12/03 08:03:32;;;;;;;17.45;13.20;;;0.20;1.00;;;;;;5149755;27;20709;-80
2023/12/03 08:05:59;;;;;;;18.30;14.02;;;0.00;1.00;;;;;;5150155;27;20237;-78
2023/12/03 08:08:28;;;;;;;19.52;14.68;;;0.00;1.00;;;;;;5151430;27;20311;-78
2023/12/03 08:11:00;;;;;;;22.52;15.23;;;0.10;1.00;;;;;;5148780;27;20338;-78
2023/12/03 08:13:27;;;;;;;22.95;14.60;;;0.10;1.00;;;;;;5153409;27;20249;-77
2023/12/03 08:15:54;;;;;;;19.10;14.60;;;0.20;1.00;;;;;;5147292;27;20237;-77
2023/12/03 08:18:21;;;;;;;19.83;14.68;;;0.20;1.00;;;;;;5147075;27;20293;-77
2023/12/03 08:20:49;;;;;;;19.52;14.30;;;0.10;1.00;;;;;;5162178;27;20316;-76
2023/12/03 08:23:16;;;;;;;23.08;14.55;;;0.10;1.00;;;;;;5147255;27;20301;-76
2023/12/03 08:25:45;;;;;;;16.58;14.38;;;0.10;1.00;;;;;;5151745;27;20279;-77
2023/12/03 08:28:12;;;;;;;17.75;13.02;;;0.00;1.00;;;;;;5151969;27;20330;-77
2023/12/03 08:30:39;;;;;;;15.80;12.75;;;-0.10;1.00;;;;;;5146872;27;20244;-77
2023/12/03 08:33:06;;;;;;;19.63;13.93;;;-0.10;1.00;;;;;;5149952;27;20334;-77
2023/12/03 08:35:33;;;;;;;19.70;13.25;;;0.00;1.00;;;;;;5151348;27;20234;-77
2023/12/03 08:38:00;;;;;;;16.70;13.77;;;0.20;1.00;;;;;;5155080;27;20288;-78
2023/12/03 08:40:27;;;;;;;19.02;13.55;;;0.30;1.00;;;;;;5146008;27;20245;-77
2023/12/03 08:42:56;;;;;;;23.45;14.50;;;0.60;1.00;;;;;;5150889;27;20257;-79
2023/12/03 08:45:23;;;;;;;18.23;14.32;;;0.80;1.00;;;;;;5153277;27;20240;-77
2023/12/03 08:47:51;;;;;;;15.50;12.75;;;0.80;1.00;;;;;;5148366;27;21041;-78
2023/12/03 08:50:26;;;;;;;16.25;11.63;;;0.80;1.00;;;;;;5157929;27;20821;-78
2023/12/03 08:52:54;;;;;;;13.93;12.00;;;0.60;1.00;;;;;;5153505;27;20241;-78
2023/12/03 08:55:22;;;;;;;14.23;11.50;;;0.70;1.00;;;;;;5154650;27;20351;-77
2023/12/03 08:57:49;;;;;;;15.27;11.63;;;0.70;1.00;;;;;;5153148;27;20244;-77
2023/12/03 09:00:18;;;;;;;18.70;13.48;;;0.90;1.00;;;;;;5155692;27;20784;-78
2023/12/03 09:02:48;;;;;;;17.88;13.15;;;1.00;1.00;;;;;;5151555;27;20234;-77
2023/12/03 09:05:16;;;;;;;18.23;13.15;;;1.10;1.00;;;;;;5156240;27;20241;-77
2023/12/03 09:07:45;;;;;;;16.00;12.85;;;1.00;1.00;;;;;;5153531;27;20234;-78
2023/12/03 09:10:12;;;;;;;18.50;12.77;;;1.00;1.00;;;;;;5153565;27;20234;-78
2023/12/03 09:12:39;;;;;;;13.68;11.88;;;1.00;1.00;;;;;;5155321;27;20233;-77
2023/12/03 09:15:07;;;;;;;13.70;10.95;;;0.90;1.00;;;;;;5151266;27;20238;-77
2023/12/03 09:17:36;;;;;;;13.77;10.43;;;0.70;1.00;;;;;;5155217;27;20678;-78
2023/12/03 09:20:05;;;;;;;14.57;10.80;;;0.50;1.00;;;;;;5153136;27;21038;-78
2023/12/03 09:22:32;;;;;;;14.60;10.77;;;0.50;1.00;;;;;;5154270;27;20229;-78
2023/12/03 09:24:59;;;;;;;15.77;10.52;;;0.40;1.00;;;;;;5154122;27;20318;-76
2023/12/03 09:27:26;;;;;;;11.90;9.65;;;0.30;1.00;;;;;;5149987;27;20725;-77
2023/12/03 09:29:53;;;;;;;17.33;11.60;;;0.30;1.00;;;;;;5155132;27;20253;-78
2023/12/03 09:32:20;;;;;;;20.08;14.75;;;0.30;1.00;;;;;;5152691;27;20269;-78
2023/12/03 09:34:48;;;;;;;13.32;11.10;;;0.30;1.00;;;;;;5156391;27;20834;-78
2023/12/03 09:37:15;;;;;;;16.35;12.18;;;0.30;1.00;;;;;;5155926;27;20790;-78
2023/12/03 09:39:42;;;;;;;13.32;10.77;;;0.30;1.00;;;;;;5155490;27;20323;-78
2023/12/03 09:42:13;;;;;;;13.75;11.00;;;0.40;1.00;;;;;;5155464;27;21800;-78
2023/12/03 09:44:49;;;;;;;17.92;11.50;;;0.40;1.00;;;;;;5154517;27;20326;-78
2023/12/03 09:47:16;;;;;;;12.23;10.93;;;0.50;1.00;;;;;;5154942;27;20283;-78
2023/12/03 09:49:50;;;;;;;15.15;11.90;;;0.40;1.00;;;;;;5155363;27;20232;-77
2023/12/03 09:52:21;;;;;;;17.10;13.13;;;0.30;1.00;;;;;;5154568;27;20238;-80
2023/12/03 09:54:49;;;;;;;14.10;11.02;;;0.30;1.00;;;;;;5150458;27;20236;-79
2023/12/03 09:57:18;;;;;;;16.00;11.85;;;0.30;1.00;;;;;;5153921;27;20269;-79
2023/12/03 09:59:47;;;;;;;18.10;12.82;;;0.20;1.00;;;;;;5152889;27;21112;-79
2023/12/03 10:02:17;;;;;;;15.20;11.25;;;0.10;1.00;;;;;;5153908;27;20309;-80
2023/12/03 10:04:46;;;;;;;17.30;15.48;;;0.20;1.00;;;;;;5153144;27;20244;-78
2023/12/03 10:07:16;;;;;;;13.30;11.43;;;0.30;1.00;;;;;;5146712;27;20238;-77
2023/12/03 10:09:44;;;;;;;19.92;14.05;;;0.40;1.00;;;;;;5149945;27;21110;-78
2023/12/03 10:12:15;;;;;;;13.38;11.57;;;0.50;1.00;;;;;;5149955;27;20238;-78
2023/12/03 10:14:43;;;;;;;17.13;12.40;;;0.50;1.00;;;;;;5149975;27;20264;-76
2023/12/03 10:17:10;;;;;;;14.07;11.45;;;0.40;1.00;;;;;;5151379;27;20285;-79
2023/12/03 10:19:37;;;;;;;15.07;12.05;;;0.40;1.00;;;;;;5151519;27;20237;-80
2023/12/03 10:22:04;;;;;;;14.55;11.95;;;0.40;1.00;;;;;;5143399;27;20234;-77
2023/12/03 10:24:47;;;;;;;13.93;11.50;;;0.50;1.00;;;;;;5147575;27;20242;-79
2023/12/03 10:27:14;;;;;;;15.70;11.90;;;0.70;1.00;;;;;;5149019;27;20233;-77
2023/12/03 10:29:41;;;;;;;16.05;11.52;;;0.70;1.00;;;;;;5146424;27;20296;-79
2023/12/03 10:32:09;;;;;;;15.93;12.38;;;0.70;1.00;;;;;;5151391;27;20319;-79
2023/12/03 10:34:36;;;;;;;17.52;12.30;;;0.60;1.00;;;;;;5150657;27;20240;-78
2023/12/03 10:37:04;;;;;;;14.18;11.93;;;0.50;1.00;;;;;;5151437;27;20262;-78
2023/12/03 10:39:33;;;;;;;17.45;12.55;;;0.40;1.00;;;;;;5152839;27;20734;-79
2023/12/03 10:42:00;;;;;;;14.88;12.30;;;0.50;1.00;;;;;;5149266;27;21070;-78
2023/12/03 10:44:28;;;;;;;19.40;14.40;;;0.50;1.00;;;;;;5151782;27;20291;-77
2023/12/03 10:46:57;;;;;;;14.35;11.90;;;0.50;1.00;;;;;;5151927;27;20724;-77
2023/12/03 10:49:27;;;;;;;15.05;11.57;;;0.60;1.00;;;;;;5152691;27;20233;-77
2023/12/03 10:52:01;;;;;;;15.00;12.50;;;0.70;1.00;;;;;;5150088;27;20226;-76
2023/12/03 10:54:28;;;;;;;14.93;10.98;;;0.80;1.00;;;;;;5153073;27;20365;-77
2023/12/03 10:56:57;;;;;;;14.35;11.48;;;0.90;1.00;;;;;;5151226;27;20299;-78
2023/12/03 10:59:28;;;;;;;14.18;11.60;;;0.90;1.00;;;;;;5154312;27;20249;-78
2023/12/03 11:01:58;;;;;;;12.98;10.15;;;0.90;1.00;;;;;;5152098;27;20287;-77
2023/12/03 11:04:35;;;;;;;13.60;10.52;;;0.80;1.00;;;;;;5151017;27;20270;-77
2023/12/03 11:07:08;;;;;;;13.65;11.10;;;0.80;1.00;;;;;;5150346;27;20226;-77
2023/12/03 11:09:36;;;;;;;14.20;10.95;;;0.80;1.00;;;;;;5150827;27;20233;-77
2023/12/03 11:12:09;;;;;;;16.52;12.38;;;0.80;1.00;;;;;;5152556;27;20240;-77
2023/12/03 11:14:36;;;;;;;15.68;11.90;;;0.70;1.00;;;;;;5157017;27;22095;-76
2023/12/03 11:17:11;;;;;;;14.55;12.40;;;0.70;1.00;;;;;;5153152;27;20276;-76
2023/12/03 11:19:44;;;;;;;15.77;11.20;;;0.70;1.00;;;;;;5150134;27;21107;-78
2023/12/03 11:22:24;;;;;;;11.27;10.10;;;0.70;1.00;;;;;;5152553;27;20304;-75
2023/12/03 11:24:59;;;;;;;11.80;10.32;;;0.60;1.00;;;;;;5152232;27;20309;-76
2023/12/03 11:27:29;;;;;;;13.32;10.60;;;0.60;1.00;;;;;;5152392;27;20237;-77
2023/12/03 11:29:59;;;;;;;12.98;10.07;;;0.60;1.00;;;;;;5148499;27;20245;-77
2023/12/03 11:32:28;;;;;;;11.73;10.52;;;0.70;1.00;;;;;;5153707;27;20230;-76
2023/12/03 11:34:58;;;;;;;12.80;10.23;;;0.70;1.00;;;;;;5147035;27;20234;-78
2023/12/03 11:37:27;;;;;;;12.93;10.50;;;0.80;1.00;;;;;;5149369;27;20233;-78
2023/12/03 11:39:56;;;;;;;12.57;10.07;;;0.90;1.00;;;;;;5155158;27;20238;-76
2023/12/03 11:42:25;;;;;;;16.30;11.75;;;1.00;1.00;;;;;;5153246;27;20244;-77
2023/12/03 11:45:25;;;;;;;17.20;10.98;;;1.10;1.00;;;;;;5149977;27;20990;-77
2023/12/03 11:48:07;;;;;;;12.30;10.45;;;1.20;1.00;;;;;;5150650;27;20230;-77
2023/12/03 11:50:36;;;;;;;14.23;11.38;;;1.20;1.00;;;;;;5149814;27;20226;-76
2023/12/03 11:53:03;;;;;;;12.75;10.50;;;1.40;1.00;;;;;;5153212;27;20233;-75
2023/12/03 11:55:35;;;;;;;13.43;10.73;;;1.50;1.00;;;;;;5151460;27;21099;-76
2023/12/03 11:58:07;;;;;;;11.00;9.18;;;1.60;1.00;;;;;;5148497;27;20242;-76
2023/12/03 12:00:37;;;;;;;13.57;10.23;;;1.70;1.00;;;;;;5149868;27;21233;-76
2023/12/03 12:03:07;;;;;;;14.18;10.82;;;1.70;1.00;;;;;;5150309;27;20310;-76
2023/12/03 12:05:42;;;;;;;13.30;10.50;;;1.60;1.00;;;;;;5151386;27;21114;-76
2023/12/03 12:08:09;;;;;;;12.45;10.18;;;1.50;1.00;;;;;;5149809;27;20269;-78
2023/12/03 12:10:36;;;;;;;14.32;10.82;;;1.30;1.00;;;;;;5152246;27;20322;-77
2023/12/03 12:13:05;;;;;;;11.05;9.80;;;1.30;1.00;;;;;;5150583;27;20225;-77
2023/12/03 12:15:32;;;;;;;11.50;10.25;;;1.30;1.00;;;;;;5148027;27;20234;-75
2023/12/03 12:18:00;;;;;;;13.82;11.82;;;1.20;1.00;;;;;;5150992;27;20238;-78
2023/12/03 12:20:29;;;;;;;12.30;9.27;;;1.10;1.00;;;;;;5146898;27;20237;-77
2023/12/03 12:22:57;;;;;;;11.93;9.73;;;1.10;1.00;;;;;;5147065;27;20334;-76
2023/12/03 12:25:27;;;;;;;15.18;11.88;;;1.10;1.00;;;;;;5152016;27;20763;-77
2023/12/03 12:27:56;;;;;;;13.30;11.05;;;1.00;1.00;;;;;;5149683;27;20234;-77
2023/12/03 12:30:25;;;;;;;13.75;11.10;;;0.90;1.00;;;;;;5149849;27;20234;-77
2023/12/03 12:32:56;;;;;;;17.23;12.02;;;0.90;1.00;;;;;;5149454;27;20242;-76
2023/12/03 12:35:26;;;;;;;15.98;12.20;;;0.90;1.00;;;;;;5149984;27;20950;-78
2023/12/03 12:38:01;;;;;;;13.43;11.07;;;0.80;1.00;;;;;;5147396;27;20345;-77
2023/12/03 12:40:30;;;;;;;15.85;12.10;;;0.80;1.00;;;;;;5151794;27;20233;-77
2023/12/03 12:43:07;;;;;;;14.85;12.27;;;0.80;1.00;;;;;;5148500;27;20238;-78
2023/12/03 12:45:38;;;;;;;14.60;11.88;;;0.70;1.00;;;;;;5152383;27;20233;-78
2023/12/03 12:48:08;;;;;;;14.15;11.35;;;0.60;1.00;;;;;;5146408;27;20226;-77
2023/12/03 12:50:42;;;;;;;16.00;12.73;;;0.60;1.00;;;;;;5152055;27;20327;-77
2023/12/03 12:53:09;;;;;;;13.95;11.63;;;0.60;1.00;;;;;;5152888;27;20238;-77
2023/12/03 12:55:36;;;;;;;12.18;10.88;;;0.60;1.00;;;;;;5152651;27;21028;-76